sensor_id;sensor_type;location;lat;lon;timestamp;pressure;altitude;pressure_sealevel;temperature;humidity
28911;BME280;16028;42.642;23.310;2023-08-20T00:00:31;94251.25;;;21.61;68.81
28911;BME280;16028;42.642;23.310;2023-08-20T00:03:03;94251.63;;;21.72;67.23
28911;BME280;16028;42.642;23.310;2023-08-20T00:05:31;94247.19;;;21.59;68.92
28911;BME280;16028;42.642;23.310;2023-08-20T00:07:57;94247.41;;;21.51;69.57
28911;BME280;16028;42.642;23.310;2023-08-20T00:10:26;94246.81;;;21.49;70.69
28911;BME280;16028;42.642;23.310;2023-08-20T00:12:52;94249.06;;;21.52;69.97
28911;BME280;16028;42.642;23.310;2023-08-20T00:15:19;94243.75;;;21.58;69.67
28911;BME280;16028;42.642;23.310;2023-08-20T00:17:52;94251.44;;;21.67;68.94
28911;BME280;16028;42.642;23.310;2023-08-20T00:20:19;94244.13;;;21.69;68.39
28911;BME280;16028;42.642;23.310;2023-08-20T00:22:47;94252.84;;;21.76;68.28
28911;BME280;16028;42.642;23.310;2023-08-20T00:25:16;94252.81;;;21.82;68.73
28911;BME280;16028;42.642;23.310;2023-08-20T00:27:44;94252.19;;;21.93;66.45
28911;BME280;16028;42.642;23.310;2023-08-20T00:30:11;94258.06;;;21.95;65.39
28911;BME280;16028;42.642;23.310;2023-08-20T00:32:38;94251.94;;;22.08;66.82
28911;BME280;16028;42.642;23.310;2023-08-20T00:35:05;94251.50;;;22.11;66.76
28911;BME280;16028;42.642;23.310;2023-08-20T00:37:33;94245.78;;;22.14;66.21
28911;BME280;16028;42.642;23.310;2023-08-20T00:40:00;94245.56;;;22.15;66.23
28911;BME280;16028;42.642;23.310;2023-08-20T00:42:32;94249.22;;;22.14;65.87
28911;BME280;16028;42.642;23.310;2023-08-20T00:45:00;94244.97;;;22.13;66.08
28911;BME280;16028;42.642;23.310;2023-08-20T00:47:28;94249.88;;;22.10;66.12
28911;BME280;16028;42.642;23.310;2023-08-20T00:49:55;94254.34;;;22.09;66.43
28911;BME280;16028;42.642;23.310;2023-08-20T00:52:22;94248.47;;;22.07;65.52
28911;BME280;16028;42.642;23.310;2023-08-20T00:54:50;94253.75;;;22.07;65.34
28911;BME280;16028;42.642;23.310;2023-08-20T00:57:18;94247.84;;;22.05;65.02
28911;BME280;16028;42.642;23.310;2023-08-20T00:59:47;94243.16;;;22.07;65.29
28911;BME280;16028;42.642;23.310;2023-08-20T01:02:15;94242.94;;;22.09;65.54
28911;BME280;16028;42.642;23.310;2023-08-20T01:04:42;94250.28;;;22.07;66.13
28911;BME280;16028;42.642;23.310;2023-08-20T01:07:14;94248.25;;;22.09;66.02
28911;BME280;16028;42.642;23.310;2023-08-20T01:09:50;94243.16;;;22.07;65.70
28911;BME280;16028;42.642;23.310;2023-08-20T01:12:17;94243.34;;;22.06;66.07
28911;BME280;16028;42.642;23.310;2023-08-20T01:14:45;94249.66;;;22.11;65.59
28911;BME280;16028;42.642;23.310;2023-08-20T01:17:12;94247.22;;;22.10;65.33
28911;BME280;16028;42.642;23.310;2023-08-20T01:19:40;94249.03;;;22.16;65.12
28911;BME280;16028;42.642;23.310;2023-08-20T01:22:25;94244.72;;;22.15;65.80
28911;BME280;16028;42.642;23.310;2023-08-20T01:24:59;94235.19;;;22.14;64.89
28911;BME280;16028;42.642;23.310;2023-08-20T01:27:42;94242.31;;;22.13;65.48
28911;BME280;16028;42.642;23.310;2023-08-20T01:30:12;94241.25;;;22.14;65.62
28911;BME280;16028;42.642;23.310;2023-08-20T01:32:39;94244.16;;;22.13;64.78
28911;BME280;16028;42.642;23.310;2023-08-20T01:35:11;94244.16;;;22.13;64.67
28911;BME280;16028;42.642;23.310;2023-08-20T01:37:39;94238.25;;;22.11;64.95
28911;BME280;16028;42.642;23.310;2023-08-20T01:40:07;94236.41;;;22.05;66.93
28911;BME280;16028;42.642;23.310;2023-08-20T01:42:36;94236.06;;;22.01;66.93
28911;BME280;16028;42.642;23.310;2023-08-20T01:45:03;94235.44;;;21.99;67.44
28911;BME280;16028;42.642;23.310;2023-08-20T01:47:32;94235.06;;;21.96;66.73
28911;BME280;16028;42.642;23.310;2023-08-20T01:49:59;94234.06;;;21.90;67.13
28911;BME280;16028;42.642;23.310;2023-08-20T01:52:26;94235.47;;;21.86;67.52
28911;BME280;16028;42.642;23.310;2023-08-20T01:54:54;94243.03;;;21.83;67.76
28911;BME280;16028;42.642;23.310;2023-08-20T01:57:21;94242.81;;;21.84;68.45
28911;BME280;16028;42.642;23.310;2023-08-20T01:59:48;94240.78;;;21.80;68.07
28911;BME280;16028;42.642;23.310;2023-08-20T02:02:15;94232.25;;;21.78;68.42
28911;BME280;16028;42.642;23.310;2023-08-20T02:04:43;94230.22;;;21.73;68.62
28911;BME280;16028;42.642;23.310;2023-08-20T02:07:09;94225.19;;;21.65;68.87
28911;BME280;16028;42.642;23.310;2023-08-20T02:09:36;94226.03;;;21.59;69.26
28911;BME280;16028;42.642;23.310;2023-08-20T02:12:04;94219.09;;;21.51;68.93
28911;BME280;16028;42.642;23.310;2023-08-20T02:14:30;94217.53;;;21.44;69.28
28911;BME280;16028;42.642;23.310;2023-08-20T02:17:00;94210.00;;;21.41;69.92
28911;BME280;16028;42.642;23.310;2023-08-20T02:19:26;94221.41;;;21.35;69.52
28911;BME280;16028;42.642;23.310;2023-08-20T02:21:55;94214.09;;;21.30;70.18
28911;BME280;16028;42.642;23.310;2023-08-20T02:24:22;94217.34;;;21.26;70.67
28911;BME280;16028;42.642;23.310;2023-08-20T02:26:48;94216.56;;;21.19;70.13
28911;BME280;16028;42.642;23.310;2023-08-20T02:29:15;94225.53;;;21.11;70.33
28911;BME280;16028;42.642;23.310;2023-08-20T02:31:42;94219.22;;;21.05;71.09
28911;BME280;16028;42.642;23.310;2023-08-20T02:34:09;94219.00;;;21.00;71.10
28911;BME280;16028;42.642;23.310;2023-08-20T02:36:35;94215.13;;;20.96;71.91
28911;BME280;16028;42.642;23.310;2023-08-20T02:39:04;94218.59;;;20.90;72.08
28911;BME280;16028;42.642;23.310;2023-08-20T02:41:33;94212.91;;;20.87;72.37
28911;BME280;16028;42.642;23.310;2023-08-20T02:44:01;94213.13;;;20.85;72.33
28911;BME280;16028;42.642;23.310;2023-08-20T02:46:28;94224.53;;;20.86;72.43
28911;BME280;16028;42.642;23.310;2023-08-20T02:48:54;94224.72;;;20.84;72.44
28911;BME280;16028;42.642;23.310;2023-08-20T02:51:21;94224.53;;;20.86;72.65
28911;BME280;16028;42.642;23.310;2023-08-20T02:53:48;94227.97;;;20.86;72.85
28911;BME280;16028;42.642;23.310;2023-08-20T02:56:16;94232.03;;;20.89;75.60
28911;BME280;16028;42.642;23.310;2023-08-20T02:58:43;94233.88;;;20.88;75.97
28911;BME280;16028;42.642;23.310;2023-08-20T03:01:18;94233.47;;;20.85;76.36
28911;BME280;16028;42.642;23.310;2023-08-20T03:03:44;94241.63;;;20.83;75.77
28911;BME280;16028;42.642;23.310;2023-08-20T03:06:11;94244.44;;;20.82;76.42
28911;BME280;16028;42.642;23.310;2023-08-20T03:08:38;94237.94;;;20.78;76.86
28911;BME280;16028;42.642;23.310;2023-08-20T03:11:04;94250.75;;;20.74;77.00
28911;BME280;16028;42.642;23.310;2023-08-20T03:13:32;94239.78;;;20.71;77.49
28911;BME280;16028;42.642;23.310;2023-08-20T03:15:59;94247.31;;;20.67;77.39
28911;BME280;16028;42.642;23.310;2023-08-20T03:18:26;94248.72;;;20.70;77.32
28911;BME280;16028;42.642;23.310;2023-08-20T03:20:54;94242.63;;;20.69;78.73
28911;BME280;16028;42.642;23.310;2023-08-20T03:23:21;94239.56;;;20.66;79.00
28911;BME280;16028;42.642;23.310;2023-08-20T03:25:47;94235.50;;;20.63;79.40
28911;BME280;16028;42.642;23.310;2023-08-20T03:28:14;94235.31;;;20.58;79.86
28911;BME280;16028;42.642;23.310;2023-08-20T03:30:43;94232.66;;;20.51;79.75
28911;BME280;16028;42.642;23.310;2023-08-20T03:33:09;94231.03;;;20.44;80.16
28911;BME280;16028;42.642;23.310;2023-08-20T03:35:36;94231.59;;;20.39;81.03
28911;BME280;16028;42.642;23.310;2023-08-20T03:38:03;94228.97;;;20.39;81.13
28911;BME280;16028;42.642;23.310;2023-08-20T03:40:30;94231.81;;;20.38;81.45
28911;BME280;16028;42.642;23.310;2023-08-20T03:42:56;94232.41;;;20.33;81.41
28911;BME280;16028;42.642;23.310;2023-08-20T03:45:23;94227.13;;;20.27;81.29
28911;BME280;16028;42.642;23.310;2023-08-20T03:47:51;94228.53;;;20.23;82.21
28911;BME280;16028;42.642;23.310;2023-08-20T03:50:18;94222.19;;;20.17;82.72
28911;BME280;16028;42.642;23.310;2023-08-20T03:52:45;94234.78;;;20.08;83.07
28911;BME280;16028;42.642;23.310;2023-08-20T03:55:12;94227.25;;;20.05;82.85
28911;BME280;16028;42.642;23.310;2023-08-20T03:57:38;94227.66;;;20.02;83.36
28911;BME280;16028;42.642;23.310;2023-08-20T04:00:06;94228.06;;;19.99;83.84
28911;BME280;16028;42.642;23.310;2023-08-20T04:02:35;94221.16;;;19.98;83.91
28911;BME280;16028;42.642;23.310;2023-08-20T04:05:03;94228.47;;;19.96;83.90
28911;BME280;16028;42.642;23.310;2023-08-20T04:07:30;94226.81;;;19.95;83.65
28911;BME280;16028;42.642;23.310;2023-08-20T04:09:57;94231.72;;;19.98;84.05
28911;BME280;16028;42.642;23.310;2023-08-20T04:12:24;94230.88;;;19.98;84.08
28911;BME280;16028;42.642;23.310;2023-08-20T04:14:51;94226.84;;;20.02;84.52
28911;BME280;16028;42.642;23.310;2023-08-20T04:17:18;94226.06;;;20.15;82.50
28911;BME280;16028;42.642;23.310;2023-08-20T04:19:45;94223.81;;;20.12;80.90
28911;BME280;16028;42.642;23.310;2023-08-20T04:22:13;94226.25;;;20.06;83.30
28911;BME280;16028;42.642;23.310;2023-08-20T04:24:39;94228.09;;;20.06;83.70
28911;BME280;16028;42.642;23.310;2023-08-20T04:27:06;94225.84;;;20.10;84.04
28911;BME280;16028;42.642;23.310;2023-08-20T04:29:33;94221.41;;;20.10;84.81
28911;BME280;16028;42.642;23.310;2023-08-20T04:32:00;94220.38;;;20.11;86.04
28911;BME280;16028;42.642;23.310;2023-08-20T04:34:27;94222.59;;;20.14;86.86
28911;BME280;16028;42.642;23.310;2023-08-20T04:36:54;94219.34;;;20.12;86.81
28911;BME280;16028;42.642;23.310;2023-08-20T04:39:22;94225.25;;;20.14;87.54
28911;BME280;16028;42.642;23.310;2023-08-20T04:41:48;94229.72;;;20.20;87.80
28911;BME280;16028;42.642;23.310;2023-08-20T04:44:15;94222.63;;;20.21;89.00
28911;BME280;16028;42.642;23.310;2023-08-20T04:46:42;94222.84;;;20.19;89.53
28911;BME280;16028;42.642;23.310;2023-08-20T04:49:09;94233.19;;;20.21;90.01
28911;BME280;16028;42.642;23.310;2023-08-20T04:51:35;94221.63;;;20.22;90.22
28911;BME280;16028;42.642;23.310;2023-08-20T04:54:03;94223.66;;;20.26;91.00
28911;BME280;16028;42.642;23.310;2023-08-20T04:56:31;94231.41;;;20.28;90.96
28911;BME280;16028;42.642;23.310;2023-08-20T04:58:58;94230.00;;;20.32;90.84
28911;BME280;16028;42.642;23.310;2023-08-20T05:01:24;94237.53;;;20.35;89.58
28911;BME280;16028;42.642;23.310;2023-08-20T05:03:51;94231.44;;;20.41;88.41
28911;BME280;16028;42.642;23.310;2023-08-20T05:06:18;94238.34;;;20.42;85.11
28911;BME280;16028;42.642;23.310;2023-08-20T05:08:45;94237.13;;;20.51;82.96
28911;BME280;16028;42.642;23.310;2023-08-20T05:11:11;94246.06;;;20.63;81.75
28911;BME280;16028;42.642;23.310;2023-08-20T05:13:40;94248.50;;;20.65;80.54
28911;BME280;16028;42.642;23.310;2023-08-20T05:16:06;94248.13;;;20.68;80.36
28911;BME280;16028;42.642;23.310;2023-08-20T05:18:33;94249.97;;;20.74;80.14
28911;BME280;16028;42.642;23.310;2023-08-20T05:21:00;94256.25;;;20.79;78.92
28911;BME280;16028;42.642;23.310;2023-08-20T05:23:26;94247.91;;;20.89;79.70
28911;BME280;16028;42.642;23.310;2023-08-20T05:25:53;94254.41;;;21.19;77.23
28911;BME280;16028;42.642;23.310;2023-08-20T05:28:20;94260.66;;;21.44;74.67
28911;BME280;16028;42.642;23.310;2023-08-20T05:30:54;94259.78;;;21.63;75.38
28911;BME280;16028;42.642;23.310;2023-08-20T05:33:21;94253.31;;;21.59;77.01
28911;BME280;16028;42.642;23.310;2023-08-20T05:35:50;94256.13;;;21.64;77.10
28911;BME280;16028;42.642;23.310;2023-08-20T05:38:17;94261.38;;;21.78;74.79
28911;BME280;16028;42.642;23.310;2023-08-20T05:40:44;94258.25;;;22.07;76.17
28911;BME280;16028;42.642;23.310;2023-08-20T05:43:11;94259.06;;;22.07;72.57
28911;BME280;16028;42.642;23.310;2023-08-20T05:45:38;94258.41;;;22.12;73.92
28911;BME280;16028;42.642;23.310;2023-08-20T05:48:06;94256.47;;;22.32;73.50
28911;BME280;16028;42.642;23.310;2023-08-20T05:50:33;94261.34;;;22.35;74.30
28911;BME280;16028;42.642;23.310;2023-08-20T05:53:00;94260.88;;;22.45;73.56
28911;BME280;16028;42.642;23.310;2023-08-20T05:55:27;94257.97;;;22.53;75.09
28911;BME280;16028;42.642;23.310;2023-08-20T05:57:53;94250.91;;;22.78;71.74
28911;BME280;16028;42.642;23.310;2023-08-20T06:00:20;94256.50;;;22.88;71.98
28911;BME280;16028;42.642;23.310;2023-08-20T06:02:47;94263.84;;;22.93;73.72
28911;BME280;16028;42.642;23.310;2023-08-20T06:05:16;94254.63;;;22.95;71.82
28911;BME280;16028;42.642;23.310;2023-08-20T06:07:42;94251.97;;;22.95;72.42
28911;BME280;16028;42.642;23.310;2023-08-20T06:10:09;94252.19;;;22.94;73.53
28911;BME280;16028;42.642;23.310;2023-08-20T06:12:37;94252.72;;;23.02;73.01
28911;BME280;16028;42.642;23.310;2023-08-20T06:15:04;94253.06;;;23.12;72.59
28911;BME280;16028;42.642;23.310;2023-08-20T06:17:31;94256.41;;;23.26;72.01
28911;BME280;16028;42.642;23.310;2023-08-20T06:19:58;94263.38;;;23.45;70.91
28911;BME280;16028;42.642;23.310;2023-08-20T06:22:26;94263.75;;;23.85;68.33
28911;BME280;16028;42.642;23.310;2023-08-20T06:24:53;94255.19;;;24.01;69.04
28911;BME280;16028;42.642;23.310;2023-08-20T06:27:20;94260.94;;;24.16;68.13
28911;BME280;16028;42.642;23.310;2023-08-20T06:29:46;94266.81;;;24.37;66.35
28911;BME280;16028;42.642;23.310;2023-08-20T06:32:13;94263.19;;;24.61;68.14
28911;BME280;16028;42.642;23.310;2023-08-20T06:34:40;94267.50;;;24.73;67.69
28911;BME280;16028;42.642;23.310;2023-08-20T06:37:07;94261.56;;;24.90;65.20
28911;BME280;16028;42.642;23.310;2023-08-20T06:39:35;94269.09;;;24.93;59.47
28911;BME280;16028;42.642;23.310;2023-08-20T06:42:02;94266.19;;;24.94;61.02
28911;BME280;16028;42.642;23.310;2023-08-20T06:44:29;94264.84;;;24.73;59.94
28911;BME280;16028;42.642;23.310;2023-08-20T06:46:56;94271.78;;;24.74;59.08
28911;BME280;16028;42.642;23.310;2023-08-20T06:49:22;94272.72;;;24.68;59.64
28911;BME280;16028;42.642;23.310;2023-08-20T06:51:49;94269.81;;;24.70;58.68
28911;BME280;16028;42.642;23.310;2023-08-20T06:54:16;94261.97;;;24.75;60.83
28911;BME280;16028;42.642;23.310;2023-08-20T06:56:44;94274.47;;;24.74;58.43
28911;BME280;16028;42.642;23.310;2023-08-20T06:59:11;94272.97;;;24.79;58.70
28911;BME280;16028;42.642;23.310;2023-08-20T07:01:38;94272.63;;;24.75;57.58
28911;BME280;16028;42.642;23.310;2023-08-20T07:04:05;94269.50;;;24.78;58.81
28911;BME280;16028;42.642;23.310;2023-08-20T07:06:32;94269.63;;;24.83;58.89
28911;BME280;16028;42.642;23.310;2023-08-20T07:08:59;94273.78;;;24.79;60.37
28911;BME280;16028;42.642;23.310;2023-08-20T07:11:26;94281.25;;;25.00;55.90
28911;BME280;16028;42.642;23.310;2023-08-20T07:13:54;94272.69;;;24.98;56.82
28911;BME280;16028;42.642;23.310;2023-08-20T07:16:20;94276.75;;;25.01;55.87
28911;BME280;16028;42.642;23.310;2023-08-20T07:18:47;94273.38;;;24.94;56.48
28911;BME280;16028;42.642;23.310;2023-08-20T07:21:14;94262.97;;;25.04;58.71
28911;BME280;16028;42.642;23.310;2023-08-20T07:23:41;94285.31;;;25.14;54.22
28911;BME280;16028;42.642;23.310;2023-08-20T07:26:09;94268.88;;;25.06;57.07
28911;BME280;16028;42.642;23.310;2023-08-20T07:28:37;94278.25;;;25.08;57.30
28911;BME280;16028;42.642;23.310;2023-08-20T07:31:25;94278.50;;;25.18;55.48
28911;BME280;16028;42.642;23.310;2023-08-20T07:33:53;94275.50;;;25.26;54.69
28911;BME280;16028;42.642;23.310;2023-08-20T07:36:21;94275.97;;;25.23;56.18
28911;BME280;16028;42.642;23.310;2023-08-20T07:38:48;94279.41;;;25.24;55.70
28911;BME280;16028;42.642;23.310;2023-08-20T07:41:15;94274.69;;;25.26;56.87
28911;BME280;16028;42.642;23.310;2023-08-20T07:43:42;94286.38;;;25.48;52.45
28911;BME280;16028;42.642;23.310;2023-08-20T07:46:09;94276.06;;;25.28;54.53
28911;BME280;16028;42.642;23.310;2023-08-20T07:48:37;94275.97;;;25.23;55.92
28911;BME280;16028;42.642;23.310;2023-08-20T07:51:04;94274.34;;;25.22;55.99
28911;BME280;16028;42.642;23.310;2023-08-20T07:53:32;94270.53;;;25.30;56.42
28911;BME280;16028;42.642;23.310;2023-08-20T07:55:59;94278.28;;;25.32;55.70
28911;BME280;16028;42.642;23.310;2023-08-20T07:58:26;94279.53;;;25.41;55.22
28911;BME280;16028;42.642;23.310;2023-08-20T08:00:53;94283.72;;;25.48;53.17
28911;BME280;16028;42.642;23.310;2023-08-20T08:03:20;94282.00;;;25.54;54.97
28911;BME280;16028;42.642;23.310;2023-08-20T08:05:49;94282.47;;;25.51;53.57
28911;BME280;16028;42.642;23.310;2023-08-20T08:08:19;94281.88;;;25.49;54.75
28911;BME280;16028;42.642;23.310;2023-08-20T08:10:47;94283.75;;;25.60;53.78
28911;BME280;16028;42.642;23.310;2023-08-20T08:13:15;94287.56;;;25.64;52.36
28911;BME280;16028;42.642;23.310;2023-08-20T08:15:42;94285.47;;;25.66;53.42
28911;BME280;16028;42.642;23.310;2023-08-20T08:18:09;94286.28;;;25.66;53.32
28911;BME280;16028;42.642;23.310;2023-08-20T08:20:36;94285.94;;;25.63;51.83
28911;BME280;16028;42.642;23.310;2023-08-20T08:23:04;94293.22;;;25.79;51.24
28911;BME280;16028;42.642;23.310;2023-08-20T08:25:30;94279.56;;;25.75;50.93
28911;BME280;16028;42.642;23.310;2023-08-20T08:27:57;94288.03;;;25.84;49.66
28911;BME280;16028;42.642;23.310;2023-08-20T08:30:24;94293.22;;;25.91;48.44
28911;BME280;16028;42.642;23.310;2023-08-20T08:32:51;94276.50;;;25.95;50.84
28911;BME280;16028;42.642;23.310;2023-08-20T08:35:19;94294.22;;;26.24;46.00
28911;BME280;16028;42.642;23.310;2023-08-20T08:37:45;94295.25;;;26.63;43.85
28911;BME280;16028;42.642;23.310;2023-08-20T08:40:14;94287.19;;;26.47;44.85
28911;BME280;16028;42.642;23.310;2023-08-20T08:42:41;94284.44;;;26.42;45.81
28911;BME280;16028;42.642;23.310;2023-08-20T08:45:09;94278.97;;;26.37;46.49
28911;BME280;16028;42.642;23.310;2023-08-20T08:47:36;94262.28;;;26.29;48.81
28911;BME280;16028;42.642;23.310;2023-08-20T08:50:05;94286.63;;;26.33;45.38
28911;BME280;16028;42.642;23.310;2023-08-20T08:52:33;94302.97;;;26.76;43.03
28911;BME280;16028;42.642;23.310;2023-08-20T08:55:00;94308.09;;;26.66;42.16
28911;BME280;16028;42.642;23.310;2023-08-20T08:57:29;94289.84;;;26.47;44.51
28911;BME280;16028;42.642;23.310;2023-08-20T08:59:57;94300.81;;;26.62;43.84
28911;BME280;16028;42.642;23.310;2023-08-20T09:02:23;94302.91;;;26.60;42.89
28911;BME280;16028;42.642;23.310;2023-08-20T09:04:50;94308.66;;;26.68;42.28
28911;BME280;16028;42.642;23.310;2023-08-20T09:07:18;94310.22;;;26.64;42.76
28911;BME280;16028;42.642;23.310;2023-08-20T09:09:46;94276.84;;;26.50;45.05
28911;BME280;16028;42.642;23.310;2023-08-20T09:12:15;94303.59;;;26.67;41.56
28911;BME280;16028;42.642;23.310;2023-08-20T09:14:45;94301.66;;;27.07;41.30
28911;BME280;16028;42.642;23.310;2023-08-20T09:17:14;94297.50;;;27.00;41.88
28911;BME280;16028;42.642;23.310;2023-08-20T09:19:42;94298.91;;;27.02;41.22
28911;BME280;16028;42.642;23.310;2023-08-20T09:22:10;94283.44;;;27.04;42.72
28911;BME280;16028;42.642;23.310;2023-08-20T09:24:40;94295.00;;;27.10;42.21
28911;BME280;16028;42.642;23.310;2023-08-20T09:27:08;94288.47;;;27.17;42.43
28911;BME280;16028;42.642;23.310;2023-08-20T09:29:45;94285.16;;;27.27;42.53
28911;BME280;16028;42.642;23.310;2023-08-20T09:32:16;94270.16;;;27.09;44.55
28911;BME280;16028;42.642;23.310;2023-08-20T09:34:43;94286.44;;;27.08;43.18
28911;BME280;16028;42.642;23.310;2023-08-20T09:37:11;94270.81;;;27.16;43.11
28911;BME280;16028;42.642;23.310;2023-08-20T09:39:38;94285.22;;;27.32;40.42
28911;BME280;16028;42.642;23.310;2023-08-20T09:42:06;94297.28;;;27.51;39.56
28911;BME280;16028;42.642;23.310;2023-08-20T09:44:34;94288.78;;;27.54;39.30
28911;BME280;16028;42.642;23.310;2023-08-20T09:47:06;94277.63;;;27.41;40.98
28911;BME280;16028;42.642;23.310;2023-08-20T09:49:37;94278.28;;;27.31;40.83
28911;BME280;16028;42.642;23.310;2023-08-20T09:52:05;94280.72;;;27.49;40.47
28911;BME280;16028;42.642;23.310;2023-08-20T09:54:39;94269.34;;;27.42;41.43
28911;BME280;16028;42.642;23.310;2023-08-20T09:57:13;94279.69;;;27.72;40.36
28911;BME280;16028;42.642;23.310;2023-08-20T09:59:41;94266.75;;;27.64;41.48
28911;BME280;16028;42.642;23.310;2023-08-20T10:02:12;94272.81;;;27.76;39.45
28911;BME280;16028;42.642;23.310;2023-08-20T10:04:40;94274.91;;;27.74;39.85
28911;BME280;16028;42.642;23.310;2023-08-20T10:07:08;94286.47;;;27.79;39.87
28911;BME280;16028;42.642;23.310;2023-08-20T10:09:36;94311.50;;;28.07;37.37
28911;BME280;16028;42.642;23.310;2023-08-20T10:12:04;94304.94;;;27.98;38.01
28911;BME280;16028;42.642;23.310;2023-08-20T10:14:31;94327.13;;;28.15;35.18
28911;BME280;16028;42.642;23.310;2023-08-20T10:17:00;94332.09;;;28.28;34.25
28911;BME280;16028;42.642;23.310;2023-08-20T10:19:33;94330.19;;;28.45;34.25
28911;BME280;16028;42.642;23.310;2023-08-20T10:22:02;94321.16;;;28.29;35.44
28911;BME280;16028;42.642;23.310;2023-08-20T10:24:40;94274.59;;;28.09;39.17
28911;BME280;16028;42.642;23.310;2023-08-20T10:27:07;94270.06;;;28.09;39.52
28911;BME280;16028;42.642;23.310;2023-08-20T10:29:36;94273.38;;;28.16;38.75
28911;BME280;16028;42.642;23.310;2023-08-20T10:32:05;94316.38;;;28.75;34.31
28911;BME280;16028;42.642;23.310;2023-08-20T10:34:33;94317.47;;;28.57;35.42
28911;BME280;16028;42.642;23.310;2023-08-20T10:37:02;94302.22;;;28.58;36.63
28911;BME280;16028;42.642;23.310;2023-08-20T10:39:30;94284.13;;;28.43;37.99
28911;BME280;16028;42.642;23.310;2023-08-20T10:42:10;94261.78;;;28.32;38.68
28911;BME280;16028;42.642;23.310;2023-08-20T10:45:01;94263.06;;;28.52;38.94
28911;BME280;16028;42.642;23.310;2023-08-20T10:47:36;94260.69;;;28.55;38.98
28911;BME280;16028;42.642;23.310;2023-08-20T10:50:05;94273.38;;;28.65;36.58
28911;BME280;16028;42.642;23.310;2023-08-20T10:52:38;94270.25;;;29.00;36.57
28911;BME280;16028;42.642;23.310;2023-08-20T10:55:07;94265.75;;;28.78;37.31
28911;BME280;16028;42.642;23.310;2023-08-20T10:57:35;94232.22;;;28.71;40.81
28911;BME280;16028;42.642;23.310;2023-08-20T11:00:04;94256.16;;;28.82;38.42
28911;BME280;16028;42.642;23.310;2023-08-20T11:02:37;94239.69;;;28.96;39.99
28911;BME280;16028;42.642;23.310;2023-08-20T11:05:16;94239.22;;;29.04;40.04
28911;BME280;16028;42.642;23.310;2023-08-20T11:07:45;94235.22;;;29.06;39.86
28911;BME280;16028;42.642;23.310;2023-08-20T11:10:13;94273.41;;;29.55;36.03
28911;BME280;16028;42.642;23.310;2023-08-20T11:12:41;94241.63;;;29.32;39.09
28911;BME280;16028;42.642;23.310;2023-08-20T11:15:09;94220.81;;;29.17;41.05
28911;BME280;16028;42.642;23.310;2023-08-20T11:17:40;94223.97;;;29.09;39.56
28911;BME280;16028;42.642;23.310;2023-08-20T11:20:09;94231.72;;;29.06;39.45
28911;BME280;16028;42.642;23.310;2023-08-20T11:22:38;94244.13;;;29.17;37.92
28911;BME280;16028;42.642;23.310;2023-08-20T11:25:06;94260.50;;;29.52;35.49
28911;BME280;16028;42.642;23.310;2023-08-20T11:27:42;94259.16;;;29.50;35.76
28911;BME280;16028;42.642;23.310;2023-08-20T11:30:09;94245.56;;;29.24;36.83
28911;BME280;16028;42.642;23.310;2023-08-20T11:32:37;94207.19;;;29.19;40.49
28911;BME280;16028;42.642;23.310;2023-08-20T11:35:05;94207.28;;;29.29;40.50
28911;BME280;16028;42.642;23.310;2023-08-20T11:37:33;94240.81;;;29.73;37.26
28911;BME280;16028;42.642;23.310;2023-08-20T11:40:00;94214.75;;;29.64;39.99
28911;BME280;16028;42.642;23.310;2023-08-20T11:42:27;94205.66;;;29.75;40.87
28911;BME280;16028;42.642;23.310;2023-08-20T11:44:55;94230.44;;;29.87;37.25
28911;BME280;16028;42.642;23.310;2023-08-20T11:47:22;94200.66;;;29.83;40.32
28911;BME280;16028;42.642;23.310;2023-08-20T11:50:02;94234.31;;;30.11;37.34
28911;BME280;16028;42.642;23.310;2023-08-20T11:52:31;94233.72;;;29.99;36.81
28911;BME280;16028;42.642;23.310;2023-08-20T11:54:59;94241.25;;;30.07;35.94
28911;BME280;16028;42.642;23.310;2023-08-20T11:57:28;94246.16;;;30.20;35.59
28911;BME280;16028;42.642;23.310;2023-08-20T11:59:55;94231.56;;;29.96;36.33
28911;BME280;16028;42.642;23.310;2023-08-20T12:02:25;94221.78;;;29.80;39.01
28911;BME280;16028;42.642;23.310;2023-08-20T12:04:51;94240.00;;;30.35;34.81
28911;BME280;16028;42.642;23.310;2023-08-20T12:07:18;94228.91;;;30.01;36.01
28911;BME280;16028;42.642;23.310;2023-08-20T12:09:45;94209.25;;;29.85;37.35
28911;BME280;16028;42.642;23.310;2023-08-20T12:12:15;94235.13;;;30.17;35.31
28911;BME280;16028;42.642;23.310;2023-08-20T12:14:41;94212.22;;;29.89;36.28
28911;BME280;16028;42.642;23.310;2023-08-20T12:17:09;94215.75;;;30.05;36.18
28911;BME280;16028;42.642;23.310;2023-08-20T12:19:35;94217.09;;;30.02;35.47
28911;BME280;16028;42.642;23.310;2023-08-20T12:22:02;94202.44;;;29.78;37.98
28911;BME280;16028;42.642;23.310;2023-08-20T12:24:29;94174.25;;;29.70;41.60
28911;BME280;16028;42.642;23.310;2023-08-20T12:26:56;94165.50;;;29.90;39.45
28911;BME280;16028;42.642;23.310;2023-08-20T12:29:24;94215.53;;;30.16;36.23
28911;BME280;16028;42.642;23.310;2023-08-20T12:31:51;94156.22;;;30.18;41.99
28911;BME280;16028;42.642;23.310;2023-08-20T12:34:19;94177.72;;;30.28;39.22
28911;BME280;16028;42.642;23.310;2023-08-20T12:36:47;94212.19;;;30.61;35.54
28911;BME280;16028;42.642;23.310;2023-08-20T12:39:13;94221.03;;;30.47;35.08
28911;BME280;16028;42.642;23.310;2023-08-20T12:41:40;94204.84;;;30.36;35.56
28911;BME280;16028;42.642;23.310;2023-08-20T12:44:08;94176.63;;;30.24;38.96
28911;BME280;16028;42.642;23.310;2023-08-20T12:46:36;94193.31;;;30.31;36.64
28911;BME280;16028;42.642;23.310;2023-08-20T12:49:03;94182.91;;;30.55;38.37
28911;BME280;16028;42.642;23.310;2023-08-20T12:51:30;94200.09;;;30.54;36.03
28911;BME280;16028;42.642;23.310;2023-08-20T12:53:57;94167.06;;;30.63;39.10